createdAt,value
2023-04-19T00:00:52.560Z,98647.00
2023-04-19T00:01:55.679Z,98646.88
2023-04-19T00:02:57.774Z,98646.72
2023-04-19T00:04:00.903Z,98643.16
2023-04-19T00:05:03.030Z,98643.28
2023-04-19T00:06:08.306Z,98646.03
2023-04-19T00:07:10.147Z,98647.09
2023-04-19T00:08:13.022Z,98639.56
2023-04-19T00:09:16.174Z,98644.06
2023-04-19T00:10:19.150Z,98642.41
2023-04-19T00:11:21.234Z,98645.03
2023-04-19T00:12:24.592Z,98630.09
2023-04-19T00:13:26.377Z,98629.13
2023-04-19T00:14:29.297Z,98638.75
2023-04-19T00:15:31.167Z,98632.78
2023-04-19T00:16:33.996Z,98626.75
2023-04-19T00:17:36.280Z,98640.78
2023-04-19T00:18:39.549Z,98629.75
2023-04-19T00:19:41.845Z,98631.69
2023-04-19T00:20:45.440Z,98631.69
2023-04-19T00:21:47.444Z,98626.31
2023-04-19T00:22:50.233Z,98635.78
2023-04-19T00:23:54.001Z,98619.19
2023-04-19T00:24:58.147Z,98622.50
2023-04-19T00:26:02.689Z,98623.19
2023-04-19T00:27:05.974Z,98617.13
2023-04-19T00:28:07.877Z,98620.56
2023-04-19T00:29:11.106Z,98618.09
2023-04-19T00:30:14.197Z,98621.69
2023-04-19T00:31:17.055Z,98619.19
2023-04-19T00:32:18.889Z,98622.75
2023-04-19T00:33:22.777Z,98614.09
2023-04-19T00:34:27.762Z,98620.13
2023-04-19T00:35:31.635Z,98611.88
2023-04-19T00:36:33.546Z,98609.63
2023-04-19T00:37:36.348Z,98609.88
2023-04-19T00:38:39.493Z,98614.41
2023-04-19T00:39:42.353Z,98606.72
2023-04-19T00:40:46.645Z,98603.41
2023-04-19T00:41:49.429Z,98603.78
2023-04-19T00:42:53.578Z,98613.66
2023-04-19T00:43:56.409Z,98604.31
2023-04-19T00:44:58.229Z,98608.97
2023-04-19T00:46:01.590Z,98603.97
2023-04-19T00:47:03.585Z,98607.81
2023-04-19T00:48:06.662Z,98602.72
2023-04-19T00:49:09.669Z,98595.28
2023-04-19T00:50:13.269Z,98594.13
2023-04-19T00:51:15.627Z,98597.00
2023-04-19T00:52:19.816Z,98589.44
2023-04-19T00:53:21.621Z,98601.75
2023-04-19T00:54:24.727Z,98600.25
2023-04-19T00:55:26.732Z,98592.56
2023-04-19T00:56:31.040Z,98593.63
2023-04-19T00:57:33.005Z,98594.00
2023-04-19T00:58:36.411Z,98594.28
2023-04-19T00:59:39.080Z,98592.72
2023-04-19T01:00:42.135Z,98591.91
2023-04-19T01:01:44.037Z,98590.25
2023-04-19T01:02:47.432Z,98590.25
2023-04-19T01:03:49.590Z,98589.44
2023-04-19T01:04:52.783Z,98586.97
2023-04-19T01:05:54.942Z,98581.75
2023-04-19T01:06:57.882Z,98585.28
2023-04-19T01:08:00.025Z,98580.06
2023-04-19T01:09:02.898Z,98579.25
2023-04-19T01:10:06.063Z,98580.22
2023-04-19T01:11:09.129Z,98575.94
2023-04-19T01:12:13.348Z,98576.78
2023-04-19T01:13:18.960Z,98577.72
2023-04-19T01:14:20.872Z,98580.34
2023-04-19T01:15:23.677Z,98577.72
2023-04-19T01:16:26.616Z,98575.13
2023-04-19T01:17:30.690Z,98569.91
2023-04-19T01:18:37.389Z,98575.94
2023-04-19T01:19:41.001Z,98578.69
2023-04-19T01:20:43.137Z,98576.09
2023-04-19T01:21:46.333Z,98569.09
2023-04-19T01:22:49.545Z,98563.06
2023-04-19T01:23:53.175Z,98571.13
2023-04-19T01:24:54.997Z,98560.69
2023-04-19T01:25:57.970Z,98567.69
2023-04-19T01:27:00.983Z,98562.47
2023-04-19T01:28:04.255Z,98560.81
2023-04-19T01:29:06.070Z,98561.75
2023-04-19T01:30:10.444Z,98554.88
2023-04-19T01:31:12.336Z,98560.09
2023-04-19T01:32:15.163Z,98553.09
2023-04-19T01:33:17.456Z,98557.41
2023-04-19T01:34:20.314Z,98551.47
2023-04-19T01:35:22.114Z,98550.78
2023-04-19T01:36:24.984Z,98549.13
2023-04-19T01:37:26.806Z,98546.63
2023-04-19T01:38:31.039Z,98547.72
2023-04-19T01:39:33.278Z,98546.16
2023-04-19T01:40:36.731Z,98544.66
2023-04-19T01:41:39.900Z,98545.63
2023-04-19T01:42:43.082Z,98539.59
2023-04-19T01:43:44.937Z,98545.03
2023-04-19T01:44:47.690Z,98538.28
2023-04-19T01:45:49.554Z,98542.56
2023-04-19T01:46:52.571Z,98533.91
2023-04-19T01:47:55.968Z,98533.06
2023-04-19T01:48:58.809Z,98538.28
2023-04-19T01:50:00.749Z,98537.34
2023-04-19T01:51:03.581Z,98529.41
2023-04-19T01:52:05.616Z,98527.75
2023-04-19T01:53:08.366Z,98533.06
2023-04-19T01:54:11.535Z,98527.84
2023-04-19T01:55:14.430Z,98523.59
2023-04-19T01:56:16.221Z,98529.78
2023-04-19T01:57:19.790Z,98528.13
2023-04-19T01:58:22.665Z,98520.44
2023-04-19T01:59:25.542Z,98532.63
2023-04-19T02:00:27.326Z,98523.06
2023-04-19T02:01:30.434Z,98524.78
2023-04-19T02:02:33.668Z,98527.41
2023-04-19T02:03:37.077Z,98525.66
2023-04-19T02:04:39.359Z,98516.16
2023-04-19T02:05:42.355Z,98526.47
2023-04-19T02:06:44.182Z,98522.19
2023-04-19T02:07:47.067Z,98520.56
2023-04-19T02:08:48.885Z,98523.16
2023-04-19T02:09:53.010Z,98527.41
2023-04-19T02:10:54.945Z,98520.56
2023-04-19T02:11:57.723Z,98516.16
2023-04-19T02:12:59.575Z,98527.41
2023-04-19T02:14:03.776Z,98522.19
2023-04-19T02:15:06.848Z,98521.38
2023-04-19T02:16:12.729Z,98524.09
2023-04-19T02:17:14.671Z,98518.91
2023-04-19T02:18:17.539Z,98518.91
2023-04-19T02:19:19.337Z,98520.56
2023-04-19T02:20:22.125Z,98519.03
2023-04-19T02:21:24.255Z,98522.47
2023-04-19T02:22:27.029Z,98518.91
2023-04-19T02:23:29.521Z,98519.72
2023-04-19T02:24:32.327Z,98517.94
2023-04-19T02:25:35.554Z,98514.50
2023-04-19T02:26:38.424Z,98515.34
2023-04-19T02:27:40.277Z,98513.81
2023-04-19T02:28:43.113Z,98511.09
2023-04-19T02:29:45.414Z,98517.94
2023-04-19T02:30:48.264Z,98506.69
2023-04-19T02:31:50.498Z,98511.09
2023-04-19T02:32:54.900Z,98510.25
2023-04-19T02:33:56.856Z,98509.56
2023-04-19T02:34:59.652Z,98511.31
2023-04-19T02:36:01.509Z,98506.25
2023-04-19T02:37:04.493Z,98511.47
2023-04-19T02:38:06.421Z,98503.78
2023-04-19T02:39:09.503Z,98509.81
2023-04-19T02:40:13.382Z,98506.50
2023-04-19T02:41:17.513Z,98507.34
2023-04-19T02:42:19.402Z,98503.91
2023-04-19T02:43:22.207Z,98509.81
2023-04-19T02:44:24.536Z,98496.91
2023-04-19T02:45:27.695Z,98501.19
2023-04-19T02:46:30.075Z,98499.53
2023-04-19T02:47:33.046Z,98496.91
2023-04-19T02:48:34.925Z,98501.19
2023-04-19T02:49:41.625Z,98489.94
2023-04-19T02:50:44.745Z,98495.97
2023-04-19T02:51:48.411Z,98492.53
2023-04-19T02:52:50.211Z,98495.13
2023-04-19T02:53:53.782Z,98484.72
2023-04-19T02:54:56.093Z,98491.44
2023-04-19T02:55:59.060Z,98489.66
2023-04-19T02:57:02.348Z,98484.59
2023-04-19T02:58:05.166Z,98483.91
2023-04-19T02:59:10.567Z,98484.00
2023-04-19T03:00:14.286Z,98488.38
2023-04-19T03:01:23.400Z,98488.38
2023-04-19T03:02:26.545Z,98493.50
2023-04-19T03:03:28.682Z,98488.28
2023-04-19T03:04:32.263Z,98492.63
2023-04-19T03:05:34.150Z,98484.00
2023-04-19T03:06:37.771Z,98486.59
2023-04-19T03:07:41.500Z,98484.00
2023-04-19T03:08:46.330Z,98480.47
2023-04-19T03:09:48.304Z,98476.09
2023-04-19T03:10:51.142Z,98471.56
2023-04-19T03:11:53.252Z,98465.41
2023-04-19T03:12:57.418Z,98460.19
2023-04-19T03:13:59.358Z,98460.19
2023-04-19T03:15:02.173Z,98465.41
2023-04-19T03:16:04.428Z,98459.38
2023-04-19T03:17:08.293Z,98468.81
2023-04-19T03:18:12.228Z,98467.03
2023-04-19T03:19:17.848Z,98472.25
2023-04-19T03:20:24.024Z,98474.84
2023-04-19T03:21:29.146Z,98473.34
2023-04-19T03:22:31.323Z,98469.19
2023-04-19T03:23:34.147Z,98473.59
2023-04-19T03:24:38.125Z,98466.88
2023-04-19T03:26:01.345Z,98468.66
2023-04-19T03:27:23.478Z,98468.88
2023-04-19T03:28:33.465Z,98473.28
2023-04-19T03:29:49.092Z,98462.16
2023-04-19T03:30:51.173Z,98467.25
2023-04-19T03:31:54.473Z,98472.44
2023-04-19T03:32:56.696Z,98467.00
2023-04-19T03:33:59.748Z,98467.00
2023-04-19T03:35:07.728Z,98462.63
2023-04-19T03:36:10.702Z,98462.72
2023-04-19T03:37:16.521Z,98457.63
2023-04-19T03:38:19.339Z,98459.28
2023-04-19T03:39:21.482Z,98457.41
2023-04-19T03:40:27.370Z,98461.66
2023-04-19T03:41:29.272Z,98457.13
2023-04-19T03:42:45.319Z,98449.31
2023-04-19T03:43:55.949Z,98443.16
2023-04-19T03:45:00.429Z,98443.16
2023-04-19T03:46:03.976Z,98441.41
2023-04-19T03:47:07.013Z,98443.88
2023-04-19T03:48:15.443Z,98445.66
2023-04-19T03:49:18.386Z,98438.66
2023-04-19T03:50:25.375Z,98440.44
2023-04-19T03:51:31.537Z,98439.47
2023-04-19T03:52:33.783Z,98442.09
2023-04-19T03:53:38.208Z,98442.09
2023-04-19T03:54:40.037Z,98439.63
2023-04-19T03:55:49.020Z,98440.53
2023-04-19T03:56:51.599Z,98430.97
2023-04-19T03:57:54.771Z,98432.72
2023-04-19T03:59:11.045Z,98437.94
2023-04-19T04:00:16.608Z,98439.72
2023-04-19T04:01:18.973Z,98439.63
2023-04-19T04:02:22.343Z,98437.94
2023-04-19T04:03:24.658Z,98446.47
2023-04-19T04:04:28.042Z,98430.97
2023-04-19T04:05:30.420Z,98439.63
2023-04-19T04:06:33.193Z,98443.88
2023-04-19T04:07:35.061Z,98437.84
2023-04-19T04:08:38.853Z,98445.66
2023-04-19T04:09:40.762Z,98440.81
2023-04-19T04:10:43.578Z,98450.53
2023-04-19T04:11:46.032Z,98449.13
2023-04-19T04:12:48.952Z,98447.72
2023-04-19T04:13:57.928Z,98443.72
2023-04-19T04:15:10.112Z,98441.38
2023-04-19T04:16:17.161Z,98430.25
2023-04-19T04:17:20.203Z,98433.00
2023-04-19T04:18:22.200Z,98436.66
2023-04-19T04:19:25.793Z,98436.91
2023-04-19T04:20:27.648Z,98436.19
2023-04-19T04:21:37.187Z,98437.16
2023-04-19T04:22:42.219Z,98440.84
2023-04-19T04:23:47.185Z,98436.47
2023-04-19T04:24:58.176Z,98431.38
2023-04-19T04:26:09.911Z,98426.28
2023-04-19T04:27:30.343Z,98428.31
2023-04-19T04:28:33.492Z,98422.28
2023-04-19T04:29:36.780Z,98413.66
2023-04-19T04:30:43.100Z,98415.44
2023-04-19T04:31:46.969Z,98412.00
2023-04-19T04:32:53.051Z,98416.38
2023-04-19T04:33:55.300Z,98412.13
2023-04-19T04:34:58.265Z,98412.97
2023-04-19T04:36:11.966Z,98409.63
2023-04-19T04:37:16.222Z,98408.00
2023-04-19T04:38:24.505Z,98405.53
2023-04-19T04:39:28.065Z,98409.09
2023-04-19T04:40:29.896Z,98401.28
2023-04-19T04:41:33.205Z,98398.66
2023-04-19T04:42:35.649Z,98400.31
2023-04-19T04:43:39.644Z,98400.19
2023-04-19T04:44:42.173Z,98403.59
2023-04-19T04:45:48.302Z,98400.06
2023-04-19T04:46:50.997Z,98402.53
2023-04-19T04:48:00.277Z,98400.78
2023-04-19T04:49:02.170Z,98390.34
2023-04-19T04:50:06.011Z,98391.19
2023-04-19T04:51:08.927Z,98389.41
2023-04-19T04:52:12.289Z,98394.59
2023-04-19T04:53:26.997Z,98389.16
2023-04-19T04:54:30.500Z,98391.63
2023-04-19T04:55:34.276Z,98388.06
2023-04-19T04:56:37.355Z,98382.63
2023-04-19T04:57:39.558Z,98384.50
2023-04-19T04:58:45.617Z,98394.09
2023-04-19T04:59:52.491Z,98391.75
2023-04-19T05:01:02.904Z,98396.25
2023-04-19T05:02:08.096Z,98401.59
2023-04-19T05:03:11.274Z,98417.06
2023-04-19T05:04:21.748Z,98409.97
2023-04-19T05:05:23.788Z,98415.88
2023-04-19T05:06:27.243Z,98409.72
2023-04-19T05:07:29.457Z,98414.69
2023-04-19T05:08:34.841Z,98407.69
2023-04-19T05:09:50.423Z,98416.34
2023-04-19T05:10:58.765Z,98409.34
2023-04-19T05:12:04.781Z,98404.84
2023-04-19T05:13:07.637Z,98401.16
2023-04-19T05:14:09.890Z,98410.63
2023-04-19T05:15:13.024Z,98401.88
2023-04-19T05:16:21.554Z,98405.16
2023-04-19T05:17:25.591Z,98401.47
2023-04-19T05:18:27.541Z,98408.09
2023-04-19T05:19:31.139Z,98400.88
2023-04-19T05:20:40.461Z,98403.47
2023-04-19T05:21:50.547Z,98402.25
2023-04-19T05:22:58.289Z,98407.19
2023-04-19T05:24:01.138Z,98404.34
2023-04-19T05:25:03.254Z,98406.81
2023-04-19T05:26:06.588Z,98408.38
2023-04-19T05:27:09.473Z,98401.22
2023-04-19T05:28:12.249Z,98395.88
2023-04-19T05:29:33.125Z,98395.78
2023-04-19T05:30:35.027Z,98403.69
2023-04-19T05:31:39.465Z,98396.72
2023-04-19T05:33:05.304Z,98396.03
2023-04-19T05:34:07.605Z,98397.66
2023-04-19T05:35:11.293Z,98394.97
2023-04-19T05:36:13.171Z,98396.34
2023-04-19T05:37:16.238Z,98396.09
2023-04-19T05:38:18.764Z,98395.13
2023-04-19T05:39:21.664Z,98401.97
2023-04-19T05:40:24.315Z,98396.66
2023-04-19T05:41:27.657Z,98398.16
2023-04-19T05:42:29.484Z,98403.25
2023-04-19T05:43:32.695Z,98394.34
2023-04-19T05:44:34.883Z,98400.41
2023-04-19T05:45:37.969Z,98397.53
2023-04-19T05:46:41.537Z,98396.72
2023-04-19T05:47:48.388Z,98404.66
2023-04-19T05:49:14.298Z,98402.03
2023-04-19T05:50:36.334Z,98400.63
2023-04-19T05:51:58.252Z,98400.91
2023-04-19T05:53:09.611Z,98407.09
2023-04-19T05:54:13.736Z,98404.47
2023-04-19T05:55:21.994Z,98414.19
2023-04-19T05:56:23.921Z,98409.25
2023-04-19T05:57:27.063Z,98401.69
2023-04-19T05:58:28.976Z,98414.13
2023-04-19T05:59:32.143Z,98408.38
2023-04-19T06:00:35.081Z,98411.91
2023-04-19T06:01:45.019Z,98412.16
2023-04-19T06:02:48.447Z,98414.91
2023-04-19T06:03:53.455Z,98420.94
2023-04-19T06:04:58.408Z,98419.25
2023-04-19T06:06:03.516Z,98428.03
2023-04-19T06:07:08.176Z,98421.03
2023-04-19T06:08:17.640Z,98419.41
2023-04-19T06:09:19.616Z,98421.31
2023-04-19T06:10:22.540Z,98420.03
2023-04-19T06:11:29.195Z,98415.91
2023-04-19T06:12:38.455Z,98425.03
2023-04-19T06:13:40.375Z,98421.03
2023-04-19T06:14:43.248Z,98411.72
2023-04-19T06:15:46.194Z,98417.97
2023-04-19T06:16:50.930Z,98419.91
2023-04-19T06:17:52.786Z,98425.34
2023-04-19T06:18:56.253Z,98425.59
2023-04-19T06:20:00.990Z,98428.44
2023-04-19T06:21:03.011Z,98413.78
2023-04-19T06:22:06.070Z,98419.69
2023-04-19T06:23:07.898Z,98417.53
2023-04-19T06:24:11.124Z,98417.97
2023-04-19T06:25:15.034Z,98421.31
2023-04-19T06:26:17.802Z,98408.97
2023-04-19T06:27:20.572Z,98421.03
2023-04-19T06:28:22.414Z,98421.63
2023-04-19T06:29:25.750Z,98425.03
2023-04-19T06:30:27.558Z,98425.03
2023-04-19T06:31:30.874Z,98418.88
2023-04-19T06:32:35.105Z,98411.78
2023-04-19T06:33:39.037Z,98430.56
2023-04-19T06:34:40.922Z,98420.50
2023-04-19T06:35:43.689Z,98425.19
2023-04-19T06:36:45.549Z,98420.44
2023-04-19T06:37:49.445Z,98430.34
2023-04-19T06:38:52.677Z,98427.47
2023-04-19T06:39:55.573Z,98425.69
2023-04-19T06:40:57.409Z,98425.81
2023-04-19T06:42:00.232Z,98417.31
2023-04-19T06:43:05.882Z,98419.34
2023-04-19T06:44:08.941Z,98421.25
2023-04-19T06:45:11.853Z,98424.81
2023-04-19T06:46:14.699Z,98421.63
2023-04-19T06:47:17.071Z,98429.69
2023-04-19T06:48:21.186Z,98422.13
2023-04-19T06:49:22.968Z,98423.19
2023-04-19T06:50:27.053Z,98425.25
2023-04-19T06:51:30.397Z,98429.63
2023-04-19T06:52:32.210Z,98430.69
2023-04-19T06:53:35.601Z,98432.63
2023-04-19T06:54:37.453Z,98437.94
2023-04-19T06:55:40.629Z,98433.81
2023-04-19T06:56:45.675Z,98434.78
2023-04-19T06:57:48.612Z,98427.19
2023-04-19T06:58:51.386Z,98435.13
2023-04-19T06:59:54.352Z,98432.69
2023-04-19T07:00:57.643Z,98436.91
2023-04-19T07:02:00.532Z,98435.13
2023-04-19T07:03:02.987Z,98430.75
2023-04-19T07:04:07.722Z,98435.00
2023-04-19T07:05:12.816Z,98436.19
2023-04-19T07:06:15.690Z,98438.69
2023-04-19T07:07:18.462Z,98442.81
2023-04-19T07:08:21.240Z,98444.59
2023-04-19T07:09:23.161Z,98440.34
2023-04-19T07:10:25.990Z,98437.75
2023-04-19T07:11:27.809Z,98433.34
2023-04-19T07:12:30.622Z,98448.03
2023-04-19T07:13:32.486Z,98442.59
2023-04-19T07:14:35.254Z,98444.09
2023-04-19T07:15:37.417Z,98442.91
2023-04-19T07:16:40.269Z,98440.88
2023-04-19T07:17:43.063Z,98442.38
2023-04-19T07:18:45.002Z,98441.88
2023-04-19T07:19:49.967Z,98441.63
2023-04-19T07:20:52.717Z,98440.44
2023-04-19T07:21:56.039Z,98439.34
2023-04-19T07:22:58.202Z,98444.31
2023-04-19T07:24:01.134Z,98437.19
2023-04-19T07:25:04.397Z,98434.34
2023-04-19T07:26:06.464Z,98440.13
2023-04-19T07:27:09.801Z,98431.22
2023-04-19T07:28:13.024Z,98439.72
2023-04-19T07:29:15.821Z,98441.41
2023-04-19T07:30:18.610Z,98438.50
2023-04-19T07:31:21.715Z,98441.00
2023-04-19T07:32:24.624Z,98434.25
2023-04-19T07:33:28.391Z,98437.84
2023-04-19T07:34:30.424Z,98445.78
2023-04-19T07:35:34.738Z,98431.81
2023-04-19T07:36:37.984Z,98429.06
2023-04-19T07:37:39.838Z,98433.75
2023-04-19T07:38:42.580Z,98436.09
2023-04-19T07:39:45.345Z,98435.72
2023-04-19T07:40:47.386Z,98439.00
2023-04-19T07:41:50.224Z,98440.66
2023-04-19T07:42:52.160Z,98439.84
2023-04-19T07:43:55.194Z,98434.63
2023-04-19T07:44:57.062Z,98436.03
2023-04-19T07:45:59.926Z,98445.25
2023-04-19T07:47:03.002Z,98438.81
2023-04-19T07:48:06.591Z,98440.09
2023-04-19T07:49:08.403Z,98438.72
2023-04-19T07:50:12.466Z,98436.66
2023-04-19T07:51:17.818Z,98440.00
2023-04-19T07:52:19.792Z,98441.78
2023-04-19T07:53:22.997Z,98441.06
2023-04-19T07:54:25.864Z,98441.34
2023-04-19T07:55:28.741Z,98442.31
2023-04-19T07:56:30.834Z,98442.97
2023-04-19T07:57:33.666Z,98447.09
2023-04-19T07:58:36.873Z,98441.78
2023-04-19T07:59:39.062Z,98444.38
2023-04-19T08:00:41.833Z,98447.25
2023-04-19T08:01:44.998Z,98450.13
2023-04-19T08:02:48.826Z,98445.16
2023-04-19T08:03:52.396Z,98448.72
2023-04-19T08:04:54.610Z,98444.47
2023-04-19T08:05:58.052Z,98450.06
2023-04-19T08:07:01.240Z,98443.69
2023-04-19T08:08:04.019Z,98460.69
2023-04-19T08:09:06.114Z,98448.03
2023-04-19T08:10:10.221Z,98448.41
2023-04-19T08:11:12.985Z,98454.03
2023-04-19T08:12:30.316Z,98456.22
2023-04-19T08:13:37.866Z,98451.47
2023-04-19T08:14:56.231Z,98442.16
2023-04-19T08:16:40.269Z,98449.38
2023-04-19T08:17:31.550Z,98451.41
2023-04-19T08:18:40.366Z,98442.09
2023-04-19T08:19:43.192Z,98442.91
2023-04-19T08:20:47.207Z,98445.50
2023-04-19T08:21:50.072Z,98446.84
2023-04-19T08:22:54.108Z,98447.22
2023-04-19T08:23:56.868Z,98451.16
2023-04-19T08:24:58.784Z,98442.91
2023-04-19T08:26:01.555Z,98446.00
2023-04-19T08:27:03.458Z,98442.38
2023-04-19T08:28:06.591Z,98437.66
2023-04-19T08:29:09.419Z,98439.00
2023-04-19T08:30:13.131Z,98438.41
2023-04-19T08:31:15.946Z,98433.19
2023-04-19T08:32:18.829Z,98439.50
2023-04-19T08:33:20.722Z,98438.66
2023-04-19T08:34:23.551Z,98435.34
2023-04-19T08:35:26.800Z,98442.47
2023-04-19T08:36:39.025Z,98443.50
2023-04-19T08:37:42.201Z,98443.66
2023-04-19T08:38:49.183Z,98441.88
2023-04-19T08:39:57.698Z,98433.94
2023-04-19T08:40:59.765Z,98438.06
2023-04-19T08:42:12.544Z,98440.31
2023-04-19T08:43:20.893Z,98440.50
2023-04-19T08:44:35.478Z,98442.63
2023-04-19T08:45:39.606Z,98433.34
2023-04-19T08:46:42.987Z,98438.06
2023-04-19T08:47:58.683Z,98440.28
2023-04-19T08:49:05.908Z,98431.66
2023-04-19T08:50:20.589Z,98439.22
2023-04-19T08:51:32.955Z,98439.09
2023-04-19T08:52:51.760Z,98441.44
2023-04-19T08:53:57.769Z,98441.06
2023-04-19T08:55:02.674Z,98440.53
2023-04-19T08:56:12.670Z,98434.13
2023-04-19T08:57:16.873Z,98435.41
2023-04-19T08:58:30.592Z,98440.13
2023-04-19T08:59:40.655Z,98430.16
2023-04-19T09:00:42.489Z,98434.84
2023-04-19T09:01:45.640Z,98432.69
2023-04-19T09:02:48.786Z,98436.78
2023-04-19T09:04:03.429Z,98434.63
2023-04-19T09:05:15.947Z,98433.28
2023-04-19T09:06:18.016Z,98433.84
2023-04-19T09:07:24.827Z,98436.06
2023-04-19T09:08:28.923Z,98427.16
2023-04-19T09:09:39.092Z,98424.88
2023-04-19T09:10:53.754Z,98433.66
2023-04-19T09:11:57.201Z,98432.47
2023-04-19T09:13:03.014Z,98432.06
2023-04-19T09:14:09.933Z,98430.28
2023-04-19T09:15:13.470Z,98433.56
2023-04-19T09:16:26.064Z,98423.84
2023-04-19T09:17:28.005Z,98427.41
2023-04-19T09:18:33.109Z,98437.56
2023-04-19T09:19:46.677Z,98429.22
2023-04-19T09:20:49.586Z,98431.56
2023-04-19T09:21:54.213Z,98428.00
2023-04-19T09:23:04.683Z,98427.44
2023-04-19T09:24:08.627Z,98422.66
2023-04-19T09:25:46.483Z,98422.16
2023-04-19T09:26:55.608Z,98423.66
2023-04-19T09:28:09.132Z,98417.09
2023-04-19T09:29:14.891Z,98427.28
2023-04-19T09:30:32.338Z,98424.94
2023-04-19T09:32:47.980Z,98424.56
2023-04-19T09:33:51.108Z,98424.81
2023-04-19T09:34:55.735Z,98422.63
2023-04-19T09:35:58.842Z,98419.06
2023-04-19T09:37:21.321Z,98418.66
2023-04-19T09:38:30.908Z,98417.81
2023-04-19T09:39:36.056Z,98426.75
2023-04-19T09:40:41.592Z,98417.94
2023-04-19T09:41:54.012Z,98418.91
2023-04-19T09:44:50.179Z,98422.00
2023-04-19T09:45:41.833Z,98415.66
2023-04-19T09:46:45.611Z,98420.59
2023-04-19T09:48:02.309Z,98419.09
2023-04-19T09:49:25.131Z,98415.31
2023-04-19T09:50:34.007Z,98424.75
2023-04-19T09:51:40.701Z,98422.97
2023-04-19T09:52:44.195Z,98428.47
2023-04-19T09:53:46.973Z,98424.44
2023-04-19T09:54:54.056Z,98419.59
2023-04-19T09:56:02.063Z,98421.63
2023-04-19T09:57:04.875Z,98426.53
2023-04-19T09:58:07.722Z,98425.44
2023-04-19T09:59:20.281Z,98416.47
2023-04-19T10:00:24.405Z,98418.13
2023-04-19T10:01:29.549Z,98426.22
2023-04-19T10:02:32.469Z,98427.03
2023-04-19T10:03:35.680Z,98421.38
2023-04-19T10:05:47.185Z,98425.78
2023-04-19T10:07:14.017Z,98428.78
2023-04-19T10:08:14.651Z,98427.28
2023-04-19T10:09:17.928Z,98427.59
2023-04-19T10:10:27.626Z,98426.91
2023-04-19T10:11:51.253Z,98431.81
2023-04-19T10:13:16.178Z,98420.59
2023-04-19T10:14:24.475Z,98424.72
2023-04-19T10:15:33.901Z,98423.22
2023-04-19T10:16:46.284Z,98417.06
2023-04-19T10:17:49.528Z,98422.75
2023-04-19T10:18:53.336Z,98420.75
2023-04-19T10:20:06.896Z,98423.31
2023-04-19T10:21:12.079Z,98416.66
2023-04-19T10:22:15.152Z,98426.56
2023-04-19T10:23:18.553Z,98421.69
2023-04-19T10:24:23.232Z,98419.28
2023-04-19T10:25:29.827Z,98419.78
2023-04-19T10:27:19.809Z,98422.66
2023-04-19T10:28:23.781Z,98421.88
2023-04-19T10:30:00.201Z,98415.44
2023-04-19T10:31:04.597Z,98419.22
2023-04-19T10:32:06.848Z,98426.13
2023-04-19T10:33:09.746Z,98419.41
2023-04-19T10:34:12.706Z,98426.47
2023-04-19T10:35:19.960Z,98416.53
2023-04-19T10:36:23.348Z,98425.66
2023-04-19T10:37:26.236Z,98428.78
2023-04-19T10:38:39.726Z,98420.84
2023-04-19T10:39:43.507Z,98420.69
2023-04-19T10:41:01.643Z,98416.28
2023-04-19T10:42:04.645Z,98424.16
2023-04-19T10:43:16.352Z,98424.81
2023-04-19T10:44:20.567Z,98420.00
2023-04-19T10:45:34.774Z,98417.94
2023-04-19T10:46:39.919Z,98423.44
2023-04-19T10:47:42.107Z,98425.50
2023-04-19T10:48:55.099Z,98433.34
2023-04-19T10:49:56.984Z,98428.38
2023-04-19T10:51:00.675Z,98426.88
2023-04-19T10:52:03.517Z,98434.16
2023-04-19T10:53:35.071Z,98428.94
2023-04-19T10:54:40.008Z,98437.16
2023-04-19T10:55:50.540Z,98434.69
2023-04-19T10:57:02.037Z,98437.28
2023-04-19T10:58:06.340Z,98433.03
2023-04-19T10:59:24.120Z,98431.34
2023-04-19T11:00:31.514Z,98429.69
2023-04-19T11:01:33.974Z,98429.97
2023-04-19T11:02:37.003Z,98431.88
2023-04-19T11:03:52.178Z,98437.38
2023-04-19T11:05:05.447Z,98434.78
2023-04-19T11:06:16.892Z,98426.38
2023-04-19T11:07:21.365Z,98427.44
2023-04-19T11:08:25.629Z,98430.22
2023-04-19T11:09:28.869Z,98429.38
2023-04-19T11:10:32.136Z,98428.56
2023-04-19T11:11:35.208Z,98429.38
2023-04-19T11:12:39.408Z,98432.13
2023-04-19T11:13:42.130Z,98433.91
2023-04-19T11:14:46.601Z,98429.38
2023-04-19T11:15:50.753Z,98436.09
2023-04-19T11:16:52.652Z,98431.59
2023-04-19T11:18:11.510Z,98438.47
2023-04-19T11:19:15.597Z,98435.72
2023-04-19T11:20:18.645Z,98435.59
2023-04-19T11:21:20.667Z,98441.75
2023-04-19T11:22:27.929Z,98436.53
2023-04-19T11:23:30.724Z,98444.25
2023-04-19T11:24:35.282Z,98436.53
2023-04-19T11:25:38.052Z,98446.44
2023-04-19T11:26:42.626Z,98441.47
2023-04-19T11:27:46.331Z,98444.34
2023-04-19T11:28:48.180Z,98433.09
2023-04-19T11:29:50.939Z,98448.19
2023-04-19T11:30:55.444Z,98441.56
2023-04-19T11:32:01.040Z,98442.69
2023-04-19T11:33:03.886Z,98444.44
2023-04-19T11:34:06.282Z,98445.28
2023-04-19T11:35:10.258Z,98446.09
2023-04-19T11:36:12.765Z,98445.81
2023-04-19T11:37:15.625Z,98446.78
2023-04-19T11:38:18.598Z,98448.72
2023-04-19T11:39:21.926Z,98443.75
2023-04-19T11:40:27.010Z,98443.88
2023-04-19T11:41:28.894Z,98446.88
2023-04-19T11:42:31.751Z,98447.84
2023-04-19T11:43:34.753Z,98443.84
2023-04-19T11:44:37.324Z,98447.97
2023-04-19T11:45:40.505Z,98446.31
2023-04-19T11:46:59.014Z,98442.88
2023-04-19T11:48:01.107Z,98440.41
2023-04-19T11:49:03.923Z,98437.91
2023-04-19T11:50:36.564Z,98441.63
2023-04-19T11:51:42.629Z,98439.41
2023-04-19T11:52:50.424Z,98439.69
2023-04-19T11:53:52.493Z,98444.47
2023-04-19T11:54:55.436Z,98443.75
2023-04-19T11:56:07.091Z,98443.19
2023-04-19T11:57:10.121Z,98443.31
2023-04-19T11:58:29.002Z,98440.84
2023-04-19T11:59:32.434Z,98442.19
2023-04-19T12:00:35.214Z,98442.44
2023-04-19T12:01:38.255Z,98439.97
2023-04-19T12:02:44.803Z,98436.66
2023-04-19T12:03:49.021Z,98446.25
2023-04-19T12:04:52.143Z,98439.41
2023-04-19T12:05:56.959Z,98437.75
2023-04-19T12:07:00.927Z,98442.16
2023-04-19T12:08:05.277Z,98439.53
2023-04-19T12:09:09.238Z,98437.88
2023-04-19T12:10:12.660Z,98439.41
2023-04-19T12:11:15.917Z,98441.03
2023-04-19T12:12:32.924Z,98450.53
2023-04-19T12:13:36.440Z,98450.78
2023-04-19T12:14:39.245Z,98451.38
2023-04-19T12:15:41.929Z,98448.75
2023-04-19T12:16:45.545Z,98448.63
2023-04-19T12:18:00.456Z,98444.47
2023-04-19T12:19:12.033Z,98451.38
2023-04-19T12:20:14.781Z,98446.25
2023-04-19T12:21:27.185Z,98448.03
2023-04-19T12:22:30.050Z,98442.81
2023-04-19T12:23:31.892Z,98445.56
2023-04-19T12:24:34.705Z,98450.09
2023-04-19T12:25:37.514Z,98447.75
2023-04-19T12:26:55.847Z,98455.69
2023-04-19T12:27:58.350Z,98447.97
2023-04-19T12:29:02.832Z,98453.91
2023-04-19T12:30:07.011Z,98452.00
2023-04-19T12:31:08.875Z,98445.81
2023-04-19T12:32:12.982Z,98452.00
2023-04-19T12:33:17.342Z,98453.91
2023-04-19T12:34:19.500Z,98451.53
2023-04-19T12:35:23.309Z,98450.84
2023-04-19T12:36:26.383Z,98450.84
2023-04-19T12:37:28.173Z,98457.72
2023-04-19T12:38:31.004Z,98453.19
2023-04-19T12:39:32.876Z,98452.25
2023-04-19T12:40:35.640Z,98454.72
2023-04-19T12:41:37.528Z,98453.63
2023-04-19T12:42:40.350Z,98458.84
2023-04-19T12:43:42.132Z,98440.88
2023-04-19T12:44:45.485Z,98454.03
2023-04-19T12:45:47.274Z,98450.16
2023-04-19T12:46:50.134Z,98453.84
2023-04-19T12:47:53.210Z,98451.38